Map

Track Data

SID SEASON NUMBER BASIN SUBBASIN NAME ISO_TIME NATURE LAT LON WMO_WIND WMO_PRES WMO_AGENCY TRACK_TYPE DIST2LAND LANDFALL IFLAG USA_AGENCY USA_ATCF_ID USA_LAT USA_LON USA_RECORD USA_STATUS USA_WIND USA_PRES USA_SSHS USA_R34_NE USA_R34_SE USA_R34_SW USA_R34_NW USA_R50_NE USA_R50_SE USA_R50_SW USA_R50_NW USA_R64_NE USA_R64_SE USA_R64_SW USA_R64_NW USA_POCI USA_ROCI USA_RMW USA_EYE TOKYO_LAT TOKYO_LON TOKYO_GRADE TOKYO_WIND TOKYO_PRES TOKYO_R50_DIR TOKYO_R50_LONG TOKYO_R50_SHORT TOKYO_R30_DIR TOKYO_R30_LONG TOKYO_R30_SHORT TOKYO_LAND CMA_LAT CMA_LON CMA_CAT CMA_WIND CMA_PRES HKO_LAT HKO_LON HKO_CAT HKO_WIND HKO_PRES NEWDELHI_LAT NEWDELHI_LON NEWDELHI_GRADE NEWDELHI_WIND NEWDELHI_PRES NEWDELHI_CI NEWDELHI_DP NEWDELHI_POCI REUNION_LAT REUNION_LON REUNION_TYPE REUNION_WIND REUNION_PRES REUNION_TNUM REUNION_CI REUNION_RMW REUNION_R34_NE REUNION_R34_SE REUNION_R34_SW REUNION_R34_NW REUNION_R50_NE REUNION_R50_SE REUNION_R50_SW REUNION_R50_NW REUNION_R64_NE REUNION_R64_SE REUNION_R64_SW REUNION_R64_NW BOM_LAT BOM_LON BOM_TYPE BOM_WIND BOM_PRES BOM_TNUM BOM_CI BOM_RMW BOM_R34_NE BOM_R34_SE BOM_R34_SW BOM_R34_NW BOM_R50_NE BOM_R50_SE BOM_R50_SW BOM_R50_NW BOM_R64_NE BOM_R64_SE BOM_R64_SW BOM_R64_NW BOM_ROCI BOM_POCI BOM_EYE BOM_POS_METHOD BOM_PRES_METHOD NADI_LAT NADI_LON NADI_CAT NADI_WIND NADI_PRES WELLINGTON_LAT WELLINGTON_LON WELLINGTON_WIND WELLINGTON_PRES DS824_LAT DS824_LON DS824_STAGE DS824_WIND DS824_PRES TD9636_LAT TD9636_LON TD9636_STAGE TD9636_WIND TD9636_PRES TD9635_LAT TD9635_LON TD9635_WIND TD9635_PRES TD9635_ROCI NEUMANN_LAT NEUMANN_LON NEUMANN_CLASS NEUMANN_WIND NEUMANN_PRES MLC_LAT MLC_LON MLC_CLASS MLC_WIND MLC_PRES USA_GUST BOM_GUST BOM_GUST_PER REUNION_GUST REUNION_GUST_PER USA_SEAHGT USA_SEARAD_NE USA_SEARAD_SE USA_SEARAD_SW USA_SEARAD_NW STORM_SPEED STORM_DIR
1922108N09068 1922 26 NI AS NOT_NAMED 1922-04-18 00:00:00 TS 8.50000 68.4000 main 841 841 _________O____ -1 8.50000 68.4000 TC 64 1 100
1922108N09068 1922 26 NI AS NOT_NAMED 1922-04-18 03:00:00 TS 8.49334 68.4350 main 841 831 _________PO___ -1 8.49000 68.4525 TC 64 8.50000 68.4000 4 1 85
1922108N09068 1922 26 NI AS NOT_NAMED 1922-04-18 06:00:00 TS 8.50750 68.4756 main 831 831 _________OP___ -1 8.50000 68.5000 TC 64 8.51875 68.4391 4 1 57
1922108N09068 1922 26 NI AS NOT_NAMED 1922-04-18 09:00:00 TS 8.54143 68.5168 main 831 816 _________PP___ -1 8.54250 68.5425 TC 64 8.54000 68.4825 4 1 50
1922108N09068 1922 26 NI AS NOT_NAMED 1922-04-18 12:00:00 TS 8.58312 68.5673 main 816 816 _________OP___ -1 8.60000 68.6000 TC 64 8.56625 68.5347 4 2 56
1922108N09068 1922 26 NI AS NOT_NAMED 1922-04-18 15:00:00 TS 8.62500 68.6462 main 816 801 _________PO___ -1 8.65000 68.6925 TC 64 8.60000 68.6000 4 2 63
1922108N09068 1922 26 NI AS NOT_NAMED 1922-04-18 18:00:00 TS 8.67141 68.7408 main 801 792 _________OP___ -1 8.70000 68.8000 TC 64 8.64281 68.6816 4 2 63
1922108N09068 1922 26 NI AS NOT_NAMED 1922-04-18 21:00:00 TS 8.72124 68.8350 main 792 777 _________PP___ -1 8.74999 68.8925 TC 64 8.69250 68.7775 4 2 63
1922108N09068 1922 26 NI AS NOT_NAMED 1922-04-19 00:00:00 TS 8.77297 68.9423 main 777 757 _________OP___ -1 8.80000 69.0000 TC 64 8.74593 68.8847 4 3 66
1922108N09068 1922 26 NI AS NOT_NAMED 1922-04-19 03:00:00 TS 8.82500 69.0750 main 757 742 _________PO___ -1 8.85001 69.1500 TC 64 8.80000 69.0000 4 3 70
1922108N09068 1922 26 NI AS NOT_NAMED 1922-04-19 06:00:00 TS 8.86891 69.2110 main 742 733 _________OP___ -1 8.90000 69.3000 TC 64 8.83782 69.1219 4 3 71
1922108N09068 1922 26 NI AS NOT_NAMED 1922-04-19 09:00:00 TS 8.91000 69.3288 main 733 718 _________PP___ -1 8.94249 69.4075 TC 64 8.87751 69.2500 4 2 67
1922108N09068 1922 26 NI AS NOT_NAMED 1922-04-19 12:00:00 TS 8.96422 69.4391 main 718 708 _________OP___ -1 9.00000 69.5000 TC 64 8.92844 69.3782 4 3 59
1922108N09068 1922 26 NI AS NOT_NAMED 1922-04-19 15:00:00 TS 9.04250 69.5500 main 698 678 _________PO___ -1 9.08500 69.6000 TC 64 9.00000 69.5000 4 3 48
1922108N09068 1922 26 NI AS NOT_NAMED 1922-04-19 18:00:00 TS 9.15781 69.6597 main 678 663 _________OP___ -1 9.20000 69.7000 TC 64 9.11562 69.6193 4 3 40
1922108N09068 1922 26 NI AS NOT_NAMED 1922-04-19 21:00:00 TS 9.30375 69.7687 main 663 648 _________PP___ -1 9.35750 69.8075 TC 64 9.25000 69.7299 4 3 36
1922108N09068 1922 26 NI AS NOT_NAMED 1922-04-20 00:00:00 TS 9.44219 69.8628 main 648 643 _________OP___ -1 9.50000 69.9000 TC 64 9.38438 69.8256 4 3 35
1922108N09068 1922 26 NI AS NOT_NAMED 1922-04-20 03:00:00 TS 9.53250 69.9325 main 643 628 _________PO___ -1 9.56500 69.9650 TC 64 9.50000 69.9000 4 2 39
1922108N09068 1922 26 NI AS NOT_NAMED 1922-04-20 06:00:00 TS 9.58374 69.9733 main 628 628 _________OP___ -1 9.60000 70.0000 TC 64 9.56748 69.9466 4 1 27
1922108N09068 1922 26 NI AS NOT_NAMED 1922-04-20 09:00:00 TS 9.63249 69.9863 main 628 623 _________PP___ -1 9.65000 70.0000 TC 64 9.61498 69.9726 4 1 15
1922108N09068 1922 26 NI AS NOT_NAMED 1922-04-20 12:00:00 TS 9.67749 69.9936 main 623 623 _________OP___ -1 9.70000 70.0000 TC 64 9.65499 69.9872 4 1 24
1922108N09068 1922 26 NI AS NOT_NAMED 1922-04-20 15:00:00 TS 9.72125 70.0250 main 623 608 _________PO___ -1 9.74250 70.0500 TC 64 9.70000 70.0000 4 1 32
1922108N09068 1922 26 NI AS NOT_NAMED 1922-04-20 18:00:00 TS 9.78391 70.0666 main 608 603 _________OP___ -1 9.80000 70.1000 TC 64 9.76781 70.0331 4 2 22
1922108N09068 1922 26 NI AS NOT_NAMED 1922-04-20 21:00:00 TS 9.86750 70.0862 main 603 598 _________PP___ -1 9.89250 70.1075 TC 64 9.84250 70.0650 4 2 4
1922108N09068 1922 26 NI AS NOT_NAMED 1922-04-21 00:00:00 TS 9.96047 70.0947 main 598 598 _________OP___ -1 10.0000 70.1000 TC 64 9.92094 70.0894 4 2 0
1922108N09068 1922 26 NI AS NOT_NAMED 1922-04-21 03:00:00 TS 10.0537 70.1037 main 593 593 _________PO___ -1 10.1075 70.1075 TC 64 10.0000 70.1000 4 2 0
1922108N09068 1922 26 NI AS NOT_NAMED 1922-04-21 06:00:00 TS 10.1375 70.0967 main 593 588 _________OP___ -1 10.2000 70.1000 TC 64 10.0750 70.0934 4 2 343
1922108N09068 1922 26 NI AS NOT_NAMED 1922-04-21 09:00:00 TS 10.2000 70.0650 main 588 588 _________PP___ -1 10.2500 70.0575 TC 64 10.1500 70.0725 4 1 328
1922108N09068 1922 26 NI AS NOT_NAMED 1922-04-21 12:00:00 TS 10.2625 70.0202 main 593 593 _________OP___ -1 10.3000 70.0000 TC 64 10.2250 70.0403 4 2 330
1922108N09068 1922 26 NI AS NOT_NAMED 1922-04-21 15:00:00 TS 10.3500 69.9750 main 588 588 _________PO___ -1 10.4000 69.9500 TC 59 10.3000 70.0000 4 2 333
1922108N09068 1922 26 NI AS NOT_NAMED 1922-04-21 18:00:00 TS 10.4355 69.9306 main 597 592 _________OP___ -1 10.5000 69.9000 TC 54 10.3709 69.9612 4 2 328
1922108N09068 1922 26 NI AS NOT_NAMED 1922-04-21 21:00:00 TS 10.4962 69.8825 main 592 592 _________PP___ -1 10.5500 69.8500 TC 49 10.4425 69.9150 4 2 321
1922108N09068 1922 26 NI AS NOT_NAMED 1922-04-22 00:00:00 TS 10.5589 69.8306 main 597 597 _________OP___ -1 10.6000 69.8000 TC 45 10.5178 69.8612 4 2 326
1922108N09068 1922 26 NI AS NOT_NAMED 1922-04-22 03:00:00 TS 10.6462 69.7787 main 597 593 _________PO___ -1 10.6925 69.7575 TC 45 10.6000 69.8000 3 2 329
1922108N09068 1922 26 NI AS NOT_NAMED 1922-04-22 06:00:00 TS 10.7444 69.7201 main 603 598 _________OP___ -1 10.8000 69.7000 TC 45 10.6887 69.7403 3 2 324
1922108N09068 1922 26 NI AS NOT_NAMED 1922-04-22 09:00:00 TS 10.8387 69.6400 main 609 604 _________PP___ -1 10.8925 69.6075 TC 45 10.7850 69.6725 3 3 319
1922108N09068 1922 26 NI AS NOT_NAMED 1922-04-22 12:00:00 TS 10.9444 69.5467 main 615 607 _________OP___ -1 11.0000 69.5000 TC 45 10.8887 69.5934 3 3 322
1922108N09068 1922 26 NI AS NOT_NAMED 1922-04-22 15:00:00 TS 11.0750 69.4538 main 607 607 _________PO___ -1 11.1500 69.4075 TC 45 11.0000 69.5000 3 3 323
1922108N09068 1922 26 NI AS NOT_NAMED 1922-04-22 18:00:00 TS 11.2110 69.3407 main 624 621 _________OP___ -1 11.3000 69.3000 TC 45 11.1219 69.3813 3 4 315
1922108N09068 1922 26 NI AS NOT_NAMED 1922-04-22 21:00:00 TS 11.3288 69.1963 main 632 629 _________PP___ -1 11.4075 69.1425 TC 45 11.2500 69.2501 3 4 310
1922108N09068 1922 26 NI AS NOT_NAMED 1922-04-23 00:00:00 TS 11.4391 69.0594 main 639 639 _________OP___ -1 11.5000 69.0000 TC 45 11.3782 69.1188 3 3 315
1922108N09068 1922 26 NI AS NOT_NAMED 1922-04-23 03:00:00 TS 11.5500 68.9712 main 647 644 _________PO___ -1 11.6000 68.9425 TC 45 11.5000 69.0000 3 3 326
1922108N09068 1922 26 NI AS NOT_NAMED 1922-04-23 06:00:00 TS 11.6576 68.9114 main 653 653 _________OP___ -1 11.7000 68.9000 TC 45 11.6153 68.9228 3 3 328
1922108N09068 1922 26 NI AS NOT_NAMED 1922-04-23 09:00:00 TS 11.7650 68.8362 main 661 661 _________PP___ -1 11.8075 68.8150 TC 45 11.7224 68.8574 3 3 321
1922108N09068 1922 26 NI AS NOT_NAMED 1922-04-23 12:00:00 TS 11.8592 68.7442 main 666 666 _________OP___ -1 11.9000 68.7000 TC 45 11.8184 68.7884 3 3 309
1922108N09068 1922 26 NI AS NOT_NAMED 1922-04-23 15:00:00 TS 11.9288 68.6287 main 676 670 _________PO___ -1 11.9575 68.5575 TC 41 11.9000 68.7000 3 3 294
1922108N09068 1922 26 NI AS NOT_NAMED 1922-04-23 18:00:00 TS 11.9761 68.4817 main 679 679 _________OP___ -1 12.0000 68.4000 TC 37 11.9522 68.5634 3 3 286
1922108N09068 1922 26 NI AS NOT_NAMED 1922-04-23 21:00:00 TS 12.0138 68.3250 main 698 698 _________PP___ -1 12.0350 68.2425 TC 33 11.9926 68.4074 3 3 287
1922108N09068 1922 26 NI AS NOT_NAMED 1922-04-24 00:00:00 TS 12.0683 68.1739 main 701 701 _________OP___ -1 12.1000 68.1000 TC 30 12.0366 68.2478 3 3 300
1922108N09068 1922 26 NI AS NOT_NAMED 1922-04-24 03:00:00 TS 12.1712 68.0462 main 715 710 _________PO___ -1 12.2425 67.9925 TC 30 12.1000 68.1000 1 3 316
1922108N09068 1922 26 NI AS NOT_NAMED 1922-04-24 06:00:00 TS 12.3058 67.9408 main 720 715 _________OP___ -1 12.4000 67.9000 TC 30 12.2115 67.9816 1 3 321
1922108N09068 1922 26 NI AS NOT_NAMED 1922-04-24 09:00:00 TS 12.4250 67.8350 main 725 720 _________PP___ -1 12.5075 67.7925 TC 30 12.3425 67.8775 1 3 320
1922108N09068 1922 26 NI AS NOT_NAMED 1922-04-24 12:00:00 TS 12.5386 67.7424 main 730 725 _________OP___ -1 12.6000 67.7000 TC 30 12.4772 67.7847 1 3 326
1922108N09068 1922 26 NI AS NOT_NAMED 1922-04-24 15:00:00 TS 12.6537 67.6750 main 721 721 _________PO___ -1 12.7075 67.6500 TC 30 12.6000 67.7000 1 2 328
1922108N09068 1922 26 NI AS NOT_NAMED 1922-04-24 18:00:00 TS 12.7423 67.6118 main 731 727 _________OP___ -1 12.8000 67.6000 TC 30 12.6991 67.6206 1 2 318
1922108N09068 1922 26 NI AS NOT_NAMED 1922-04-24 21:00:00 TS 12.8105 67.5320 main 737 733 _________PP___ -1 12.8600 67.5125 TC 30 12.7775 67.5450 1 2 307
1922108N09068 1922 26 NI AS NOT_NAMED 1922-04-25 00:00:00 TS 12.8615 67.4479 main 743 743 _________OP___ -1 12.9000 67.4000 TC 30 12.8422 67.4719 1 2 304
1922108N09068 1922 26 NI AS NOT_NAMED 1922-04-25 03:00:00 NR 12.9000 67.4000 main 743 __________O___ -1 TC 12.9000 67.4000 1 1 314

About IBTrACS Database

This database is a web-friendly format of International Best Track Archive for Climate Stewardship (IBTrACS), a global best track data archive curated by NOAA dating back to 1842.

Updated: 2021-12-06